createdAt,value
2018-03-30T00:00:45.285Z,81.10
2018-03-30T00:03:13.532Z,81.00
2018-03-30T00:05:41.844Z,81.00
2018-03-30T00:08:10.137Z,81.20
2018-03-30T00:10:55.105Z,81.10
2018-03-30T00:13:23.405Z,81.20
2018-03-30T00:15:51.720Z,81.30
2018-03-30T00:18:20.036Z,81.20
2018-03-30T00:20:48.361Z,81.20
2018-03-30T00:23:16.654Z,81.30
2018-03-30T00:25:44.949Z,81.60
2018-03-30T00:28:13.260Z,82.50
2018-03-30T00:30:41.554Z,81.70
2018-03-30T00:33:09.860Z,81.70
2018-03-30T00:35:38.143Z,81.90
2018-03-30T00:38:06.468Z,81.80
2018-03-30T00:40:34.760Z,81.80
2018-03-30T00:43:03.075Z,82.10
2018-03-30T00:45:31.356Z,81.80
2018-03-30T00:47:59.668Z,82.70
2018-03-30T00:50:27.952Z,82.10
2018-03-30T00:52:56.260Z,82.20
2018-03-30T00:55:24.538Z,82.20
2018-03-30T00:57:52.852Z,82.30
2018-03-30T01:00:21.137Z,82.30
2018-03-30T01:02:49.455Z,82.40
2018-03-30T01:05:17.743Z,82.50
2018-03-30T01:07:46.047Z,82.70
2018-03-30T01:10:14.329Z,82.60
2018-03-30T01:12:42.690Z,82.60
2018-03-30T01:15:10.972Z,82.80
2018-03-30T01:17:39.271Z,82.90
2018-03-30T01:20:07.557Z,83.90
2018-03-30T01:22:35.868Z,83.10
2018-03-30T01:25:04.148Z,83.20
2018-03-30T01:27:32.456Z,83.20
2018-03-30T01:30:00.739Z,83.30
2018-03-30T01:32:29.080Z,83.30
2018-03-30T01:34:57.395Z,84.30
2018-03-30T01:37:25.707Z,83.30
2018-03-30T01:39:54.002Z,83.40
2018-03-30T01:42:22.308Z,83.60
2018-03-30T01:44:50.608Z,83.70
2018-03-30T01:47:19.274Z,83.70
2018-03-30T01:49:47.555Z,83.90
2018-03-30T01:52:15.885Z,84.00
2018-03-30T01:54:44.176Z,84.00
2018-03-30T01:57:12.481Z,84.20
2018-03-30T01:59:40.767Z,84.20
2018-03-30T02:02:09.070Z,84.30
2018-03-30T02:04:37.364Z,84.50
2018-03-30T02:07:05.675Z,84.40
2018-03-30T02:09:33.989Z,84.40
2018-03-30T02:12:02.281Z,84.40
2018-03-30T02:14:30.602Z,84.50
2018-03-30T02:16:58.888Z,84.60
2018-03-30T02:19:27.196Z,84.70
2018-03-30T02:21:55.481Z,84.80
2018-03-30T02:24:23.783Z,84.80
2018-03-30T02:26:52.068Z,84.80
2018-03-30T02:29:20.377Z,84.80
2018-03-30T02:31:48.658Z,84.80
2018-03-30T02:34:16.969Z,84.80
2018-03-30T02:36:45.273Z,84.60
2018-03-30T02:39:13.593Z,84.80
2018-03-30T02:41:41.905Z,84.90
2018-03-30T02:44:10.220Z,84.80
2018-03-30T02:46:38.508Z,84.80
2018-03-30T02:49:06.828Z,84.80
2018-03-30T02:51:35.116Z,84.90
2018-03-30T02:54:03.424Z,84.90
2018-03-30T02:56:31.722Z,84.90
2018-03-30T02:58:59.263Z,84.90
2018-03-30T03:01:27.565Z,85.00
2018-03-30T03:03:55.873Z,85.10
2018-03-30T03:06:24.153Z,85.20
2018-03-30T03:08:52.469Z,85.30
2018-03-30T03:11:20.754Z,85.30
2018-03-30T03:13:49.052Z,85.20
2018-03-30T03:16:17.332Z,85.20
2018-03-30T03:18:45.644Z,85.20
2018-03-30T03:21:13.940Z,85.30
2018-03-30T03:23:42.243Z,84.40
2018-03-30T03:26:10.537Z,85.40
2018-03-30T03:28:38.846Z,85.50
2018-03-30T03:31:07.126Z,85.60
2018-03-30T03:33:35.439Z,85.70
2018-03-30T03:36:03.723Z,85.80
2018-03-30T03:38:32.024Z,85.70
2018-03-30T03:41:00.317Z,85.80
2018-03-30T03:43:28.633Z,85.80
2018-03-30T03:45:56.933Z,85.90
2018-03-30T03:48:25.252Z,85.80
2018-03-30T03:50:53.540Z,85.90
2018-03-30T03:53:21.828Z,85.90
2018-03-30T03:55:50.128Z,85.70
2018-03-30T03:58:18.411Z,85.80
2018-03-30T04:00:46.724Z,85.70
2018-03-30T04:03:15.007Z,85.80
2018-03-30T04:05:43.319Z,85.90
2018-03-30T04:08:11.596Z,86.00
2018-03-30T04:10:39.904Z,86.00
2018-03-30T04:13:08.196Z,86.10
2018-03-30T04:15:36.496Z,86.30
2018-03-30T04:18:04.792Z,86.20
2018-03-30T04:20:33.097Z,86.60
2018-03-30T04:23:01.380Z,87.00
2018-03-30T04:25:29.696Z,87.10
2018-03-30T04:27:57.981Z,87.20
2018-03-30T04:30:26.292Z,87.10
2018-03-30T04:32:54.580Z,87.20
2018-03-30T04:35:22.880Z,87.40
2018-03-30T04:37:51.172Z,86.80
2018-03-30T04:40:19.471Z,87.40
2018-03-30T04:42:47.770Z,87.50
2018-03-30T04:45:16.081Z,87.80
2018-03-30T04:47:44.363Z,88.30
2018-03-30T04:50:12.676Z,88.20
2018-03-30T04:52:40.968Z,88.20
2018-03-30T04:55:09.277Z,88.20
2018-03-30T04:57:37.576Z,88.70
2018-03-30T05:00:05.892Z,88.50
2018-03-30T05:02:34.173Z,88.50
2018-03-30T05:05:02.491Z,89.40
2018-03-30T05:07:30.780Z,89.30
2018-03-30T05:09:59.137Z,89.00
2018-03-30T05:12:27.468Z,89.20
2018-03-30T05:14:55.776Z,89.20
2018-03-30T05:17:24.066Z,89.10
2018-03-30T05:19:52.379Z,89.20
2018-03-30T05:22:20.672Z,89.30
2018-03-30T05:24:48.978Z,89.20
2018-03-30T05:27:17.270Z,88.90
2018-03-30T05:29:45.574Z,88.70
2018-03-30T05:32:13.865Z,88.50
2018-03-30T05:34:42.198Z,88.50
2018-03-30T05:37:10.483Z,88.30
2018-03-30T05:39:38.769Z,88.00
2018-03-30T05:42:07.072Z,87.90
2018-03-30T05:44:35.368Z,88.00
2018-03-30T05:47:03.677Z,88.40
2018-03-30T05:49:31.972Z,88.50
2018-03-30T05:52:00.278Z,88.40
2018-03-30T05:54:28.562Z,88.20
2018-03-30T05:56:56.869Z,88.00
2018-03-30T05:59:25.168Z,88.00
2018-03-30T06:01:53.477Z,87.80
2018-03-30T06:04:21.760Z,87.60
2018-03-30T06:06:50.065Z,87.30
2018-03-30T06:09:18.364Z,87.20
2018-03-30T06:11:46.684Z,86.90
2018-03-30T06:14:14.970Z,86.90
2018-03-30T06:16:43.272Z,86.80
2018-03-30T06:19:11.565Z,86.70
2018-03-30T06:21:39.875Z,86.60
2018-03-30T06:24:08.187Z,86.10
2018-03-30T06:26:36.496Z,85.50
2018-03-30T06:29:04.786Z,85.00
2018-03-30T06:31:33.096Z,84.40
2018-03-30T06:34:01.416Z,83.80
2018-03-30T06:36:29.723Z,83.10
2018-03-30T06:38:58.020Z,82.50
2018-03-30T06:41:26.330Z,82.10
2018-03-30T06:43:55.045Z,80.90
2018-03-30T06:46:23.356Z,79.90
2018-03-30T06:48:51.649Z,79.70
2018-03-30T06:51:19.972Z,78.30
2018-03-30T06:53:48.269Z,77.30
2018-03-30T06:56:16.575Z,77.40
2018-03-30T06:58:44.877Z,75.50
2018-03-30T07:01:13.219Z,74.00
2018-03-30T07:03:41.503Z,73.10
2018-03-30T07:06:09.808Z,72.20
2018-03-30T07:08:38.108Z,71.10
2018-03-30T07:11:06.428Z,69.90
2018-03-30T07:13:34.720Z,68.60
2018-03-30T07:16:03.053Z,67.70
2018-03-30T07:18:31.357Z,65.80
2018-03-30T07:20:59.668Z,64.70
2018-03-30T07:23:27.984Z,60.80
2018-03-30T07:25:56.267Z,58.90
2018-03-30T07:28:24.579Z,58.50
2018-03-30T07:30:52.866Z,59.30
2018-03-30T07:33:21.188Z,58.70
2018-03-30T07:35:49.472Z,59.40
2018-03-30T07:38:17.790Z,59.20
2018-03-30T07:40:46.092Z,58.60
2018-03-30T07:43:14.416Z,58.50
2018-03-30T07:45:42.716Z,58.10
2018-03-30T07:48:11.024Z,57.80
2018-03-30T07:50:39.323Z,57.40
2018-03-30T07:53:07.644Z,56.60
2018-03-30T07:55:35.930Z,55.90
2018-03-30T07:58:04.240Z,55.20
2018-03-30T08:00:32.529Z,54.20
2018-03-30T08:03:00.870Z,54.30
2018-03-30T08:05:29.168Z,54.00
2018-03-30T08:07:57.484Z,53.50
2018-03-30T08:10:25.771Z,53.00
2018-03-30T08:12:54.080Z,51.80
2018-03-30T08:15:22.373Z,51.00
2018-03-30T08:17:50.696Z,49.00
2018-03-30T08:20:18.979Z,48.70
2018-03-30T08:22:47.292Z,48.40
2018-03-30T08:25:15.595Z,47.70
2018-03-30T08:27:43.908Z,47.30
2018-03-30T08:30:12.196Z,46.20
2018-03-30T08:32:40.507Z,46.20
2018-03-30T08:35:08.800Z,46.50
2018-03-30T08:37:37.121Z,45.00
2018-03-30T08:40:05.428Z,44.30
2018-03-30T08:42:33.742Z,44.90
2018-03-30T08:45:02.034Z,45.80
2018-03-30T08:47:30.339Z,45.20
2018-03-30T08:49:59.218Z,44.40
2018-03-30T08:52:27.606Z,43.20
2018-03-30T08:54:55.908Z,43.30
2018-03-30T08:57:24.221Z,43.30
2018-03-30T08:59:52.511Z,43.40
2018-03-30T09:02:20.820Z,42.00
2018-03-30T09:04:49.124Z,41.50
2018-03-30T09:07:17.470Z,41.20
2018-03-30T09:09:45.817Z,41.40
2018-03-30T09:12:14.108Z,42.30
2018-03-30T09:14:42.412Z,42.00
2018-03-30T09:17:10.700Z,41.70
2018-03-30T09:19:39.003Z,42.20
2018-03-30T09:22:07.289Z,42.40
2018-03-30T09:24:35.608Z,41.80
2018-03-30T09:27:03.935Z,41.50
2018-03-30T09:29:32.235Z,40.90
2018-03-30T09:32:00.526Z,40.90
2018-03-30T09:34:28.845Z,40.50
2018-03-30T09:36:57.128Z,39.80
2018-03-30T09:39:25.617Z,39.60
2018-03-30T09:41:54.019Z,40.10
2018-03-30T09:44:22.376Z,40.00
2018-03-30T09:46:50.671Z,40.20
2018-03-30T09:49:18.984Z,39.90
2018-03-30T09:51:47.310Z,39.60
2018-03-30T09:54:15.832Z,38.90
2018-03-30T09:56:44.225Z,38.90
2018-03-30T09:59:12.559Z,39.50
2018-03-30T10:01:40.908Z,39.80
2018-03-30T10:04:09.298Z,39.80
2018-03-30T10:06:37.596Z,39.80
2018-03-30T10:09:05.961Z,40.00
2018-03-30T10:11:34.248Z,38.70
2018-03-30T10:14:02.600Z,37.10
2018-03-30T10:16:30.885Z,36.90
2018-03-30T10:18:59.197Z,37.00
2018-03-30T10:21:27.874Z,36.80
2018-03-30T10:23:56.192Z,37.50
2018-03-30T10:26:24.481Z,37.50
2018-03-30T10:28:52.783Z,37.50
2018-03-30T10:31:21.074Z,36.90
2018-03-30T10:33:49.384Z,36.20
2018-03-30T10:36:17.680Z,36.10
2018-03-30T10:38:46.000Z,36.60
2018-03-30T10:41:14.287Z,35.80
2018-03-30T10:43:42.596Z,35.30
2018-03-30T10:46:10.888Z,35.50
2018-03-30T10:48:39.180Z,35.60
2018-03-30T10:51:07.499Z,35.00
2018-03-30T10:53:35.792Z,34.60
2018-03-30T10:56:04.096Z,35.10
2018-03-30T10:58:32.379Z,35.80
2018-03-30T11:01:00.693Z,36.40
2018-03-30T11:03:28.975Z,35.90
2018-03-30T11:05:57.288Z,35.90
2018-03-30T11:08:25.584Z,34.00
2018-03-30T11:10:53.930Z,33.40
2018-03-30T11:13:22.225Z,33.60
2018-03-30T11:15:50.527Z,33.60
2018-03-30T11:18:18.818Z,30.90
2018-03-30T11:20:47.124Z,31.60
2018-03-30T11:23:15.440Z,32.50
2018-03-30T11:25:43.747Z,33.00
2018-03-30T11:28:12.033Z,33.60
2018-03-30T11:30:40.390Z,33.30
2018-03-30T11:33:08.681Z,33.40
2018-03-30T11:35:36.988Z,33.80
2018-03-30T11:38:05.288Z,34.10
2018-03-30T11:40:33.598Z,34.20
2018-03-30T11:43:01.903Z,35.10
2018-03-30T11:45:30.216Z,35.20
2018-03-30T11:47:58.504Z,35.30
2018-03-30T11:50:26.832Z,35.10
2018-03-30T11:52:55.132Z,34.70
2018-03-30T11:55:23.454Z,34.30
2018-03-30T11:57:51.737Z,33.80
2018-03-30T12:00:20.048Z,33.70
2018-03-30T12:02:48.335Z,34.20
2018-03-30T12:05:16.651Z,34.00
2018-03-30T12:07:44.943Z,34.40
2018-03-30T12:10:13.251Z,34.70
2018-03-30T12:12:41.543Z,33.30
2018-03-30T12:15:09.857Z,34.90
2018-03-30T12:17:38.137Z,36.40
2018-03-30T12:20:06.444Z,36.30
2018-03-30T12:22:34.748Z,36.60
2018-03-30T12:25:03.077Z,36.90
2018-03-30T12:27:31.388Z,37.70
2018-03-30T12:29:59.707Z,37.60
2018-03-30T12:32:28.004Z,37.50
2018-03-30T12:34:56.285Z,36.70
2018-03-30T12:37:24.606Z,37.20
2018-03-30T12:39:52.892Z,38.00
2018-03-30T12:42:21.215Z,38.30
2018-03-30T12:44:49.508Z,38.40
2018-03-30T12:47:17.820Z,38.60
2018-03-30T12:49:46.119Z,38.90
2018-03-30T12:52:14.494Z,38.90
2018-03-30T12:54:42.759Z,39.30
2018-03-30T12:57:11.077Z,39.20
2018-03-30T12:59:39.368Z,38.90
2018-03-30T13:02:07.683Z,38.90
2018-03-30T13:04:35.975Z,38.40
2018-03-30T13:07:04.292Z,38.40
2018-03-30T13:09:32.575Z,38.70
2018-03-30T13:12:00.883Z,38.20
2018-03-30T13:14:29.205Z,38.90
2018-03-30T13:16:57.512Z,38.30
2018-03-30T13:19:25.805Z,38.10
2018-03-30T13:21:54.113Z,38.80
2018-03-30T13:24:22.439Z,38.70
2018-03-30T13:26:50.744Z,38.30
2018-03-30T13:29:19.032Z,38.20
2018-03-30T13:31:47.341Z,37.50
2018-03-30T13:34:15.628Z,37.00
2018-03-30T13:36:43.936Z,36.40
2018-03-30T13:39:12.233Z,35.20
2018-03-30T13:41:40.544Z,35.60
2018-03-30T13:44:08.839Z,36.20
2018-03-30T13:46:37.148Z,35.80
2018-03-30T13:49:05.436Z,34.70
2018-03-30T13:51:52.301Z,34.50
2018-03-30T13:54:21.466Z,35.20
2018-03-30T13:56:50.578Z,35.50
2018-03-30T13:59:19.756Z,36.20
2018-03-30T14:01:54.084Z,35.30
2018-03-30T14:04:24.960Z,36.20
2018-03-30T14:07:13.795Z,36.50
2018-03-30T14:09:56.955Z,36.90
2018-03-30T14:12:35.216Z,37.20
2018-03-30T14:15:05.234Z,37.60
2018-03-30T14:17:49.351Z,37.80
2018-03-30T14:20:23.415Z,38.20
2018-03-30T14:23:13.159Z,38.70
2018-03-30T14:25:42.316Z,38.50
2018-03-30T14:28:29.115Z,38.30
2018-03-30T14:31:12.343Z,38.50
2018-03-30T14:33:41.504Z,39.30
2018-03-30T14:36:19.721Z,39.50
2018-03-30T14:39:08.724Z,39.60
2018-03-30T14:41:37.033Z,40.00
2018-03-30T14:44:18.027Z,39.90
2018-03-30T14:46:58.832Z,39.70
2018-03-30T14:49:29.679Z,40.00
2018-03-30T14:52:09.345Z,40.60
2018-03-30T14:54:44.148Z,40.60
2018-03-30T14:57:15.352Z,41.50
2018-03-30T14:59:52.205Z,41.20
2018-03-30T15:02:36.176Z,41.70
2018-03-30T15:05:25.042Z,42.00
2018-03-30T15:08:05.899Z,42.30
2018-03-30T15:10:39.696Z,42.60
2018-03-30T15:13:16.813Z,42.30
2018-03-30T15:15:53.652Z,42.20
2018-03-30T15:18:29.445Z,42.50
2018-03-30T15:21:02.147Z,42.60
2018-03-30T15:23:32.164Z,42.80
2018-03-30T15:26:06.484Z,42.70
2018-03-30T15:28:35.533Z,42.50
2018-03-30T15:31:09.758Z,42.80
2018-03-30T15:33:53.723Z,42.30
2018-03-30T15:36:27.657Z,42.20
2018-03-30T15:38:55.948Z,42.50
2018-03-30T15:41:27.892Z,43.00
2018-03-30T15:43:56.216Z,43.40
2018-03-30T15:46:34.459Z,43.80
2018-03-30T15:49:02.761Z,43.90
2018-03-30T15:51:31.878Z,44.20
2018-03-30T15:53:58.928Z,44.10
2018-03-30T15:56:27.230Z,45.20
2018-03-30T15:58:55.558Z,47.80
2018-03-30T16:01:23.857Z,48.90
2018-03-30T16:03:52.176Z,49.70
2018-03-30T16:06:20.483Z,50.90
2018-03-30T16:08:48.809Z,52.00
2018-03-30T16:11:31.586Z,53.20
2018-03-30T16:13:59.905Z,54.20
2018-03-30T16:16:28.193Z,55.20
2018-03-30T16:18:56.024Z,55.80
2018-03-30T16:21:23.830Z,56.10
2018-03-30T16:23:51.654Z,56.60
2018-03-30T16:26:19.447Z,57.00
2018-03-30T16:28:47.281Z,57.00
2018-03-30T16:31:15.104Z,57.40
2018-03-30T16:33:42.935Z,57.60
2018-03-30T16:36:10.732Z,57.90
2018-03-30T16:38:38.566Z,58.50
2018-03-30T16:41:06.368Z,58.90
2018-03-30T16:43:34.193Z,59.10
2018-03-30T16:46:01.998Z,59.20
2018-03-30T16:48:29.830Z,59.70
2018-03-30T16:50:57.628Z,60.20
2018-03-30T16:53:25.448Z,60.90
2018-03-30T16:55:53.272Z,61.60
2018-03-30T16:58:21.098Z,62.30
2018-03-30T17:00:48.915Z,62.90
2018-03-30T17:03:16.741Z,63.60
2018-03-30T17:05:44.549Z,64.10
2018-03-30T17:08:12.369Z,64.50
2018-03-30T17:10:40.168Z,66.40
2018-03-30T17:13:08.005Z,66.90
2018-03-30T17:15:35.804Z,67.60
2018-03-30T17:18:03.750Z,68.50
2018-03-30T17:20:31.572Z,69.00
2018-03-30T17:22:59.388Z,69.60
2018-03-30T17:25:27.208Z,70.20
2018-03-30T17:27:55.013Z,70.80
2018-03-30T17:30:22.836Z,71.70
2018-03-30T17:32:50.648Z,72.60
2018-03-30T17:35:18.468Z,73.00
2018-03-30T17:37:46.289Z,73.30
2018-03-30T17:40:14.155Z,73.60
2018-03-30T17:42:41.980Z,74.10
2018-03-30T17:45:09.068Z,74.10
2018-03-30T17:47:36.865Z,75.90
2018-03-30T17:50:04.694Z,76.20
2018-03-30T17:52:32.533Z,76.70
2018-03-30T17:55:00.351Z,77.00
2018-03-30T17:57:28.156Z,77.20
2018-03-30T17:59:55.985Z,77.40
2018-03-30T18:02:23.789Z,78.00
2018-03-30T18:04:51.626Z,78.80
2018-03-30T18:07:19.437Z,78.80
2018-03-30T18:09:47.268Z,78.90
2018-03-30T18:12:15.074Z,79.30
2018-03-30T18:14:42.901Z,79.90
2018-03-30T18:17:10.704Z,80.10
2018-03-30T18:19:38.543Z,80.90
2018-03-30T18:22:06.344Z,81.10
2018-03-30T18:24:34.160Z,80.90
2018-03-30T18:27:01.976Z,81.10
2018-03-30T18:29:29.788Z,81.50
2018-03-30T18:31:57.603Z,82.00
2018-03-30T18:34:25.420Z,82.10
2018-03-30T18:36:53.237Z,81.90
2018-03-30T18:39:21.097Z,81.60
2018-03-30T18:41:48.929Z,81.70
2018-03-30T18:44:16.748Z,82.00
2018-03-30T18:46:44.543Z,82.50
2018-03-30T18:49:12.404Z,82.70
2018-03-30T18:51:40.207Z,82.70
2018-03-30T18:54:07.583Z,82.60
2018-03-30T18:56:35.407Z,83.00
2018-03-30T18:59:03.693Z,83.20
2018-03-30T19:01:31.589Z,83.60
2018-03-30T19:03:59.420Z,83.60
2018-03-30T19:06:27.262Z,83.80
2018-03-30T19:08:55.065Z,84.00
2018-03-30T19:11:22.961Z,84.00
2018-03-30T19:13:50.761Z,84.10
2018-03-30T19:16:18.579Z,84.10
2018-03-30T19:18:46.382Z,83.90
2018-03-30T19:21:14.217Z,84.20
2018-03-30T19:23:42.013Z,84.40
2018-03-30T19:26:09.893Z,84.40
2018-03-30T19:28:37.686Z,84.30
2018-03-30T19:31:05.533Z,84.10
2018-03-30T19:33:33.348Z,84.20
2018-03-30T19:36:01.168Z,84.20
2018-03-30T19:38:28.976Z,84.00
2018-03-30T19:40:56.813Z,84.00
2018-03-30T19:43:24.623Z,83.90
2018-03-30T19:45:52.460Z,83.80
2018-03-30T19:48:20.269Z,83.80
2018-03-30T19:50:48.094Z,84.30
2018-03-30T19:53:15.900Z,83.80
2018-03-30T19:55:43.720Z,83.80
2018-03-30T19:58:11.520Z,83.90
2018-03-30T20:00:39.365Z,84.40
2018-03-30T20:03:07.168Z,84.60
2018-03-30T20:05:35.001Z,84.40
2018-03-30T20:08:02.802Z,84.70
2018-03-30T20:10:30.632Z,84.70
2018-03-30T20:12:58.622Z,84.70
2018-03-30T20:15:26.552Z,85.00
2018-03-30T20:17:54.359Z,85.10
2018-03-30T20:20:22.183Z,85.30
2018-03-30T20:22:49.985Z,85.50
2018-03-30T20:25:17.821Z,85.50
2018-03-30T20:27:45.652Z,85.80
2018-03-30T20:30:13.452Z,86.10
2018-03-30T20:32:41.271Z,86.30
2018-03-30T20:35:09.076Z,86.40
2018-03-30T20:37:36.904Z,86.60
2018-03-30T20:40:04.725Z,86.80
2018-03-30T20:42:32.544Z,86.90
2018-03-30T20:45:00.339Z,86.90
2018-03-30T20:47:28.152Z,86.60
2018-03-30T20:49:55.960Z,86.50
2018-03-30T20:52:23.796Z,86.60
2018-03-30T20:54:51.596Z,86.70
2018-03-30T20:57:19.426Z,87.10
2018-03-30T20:59:47.235Z,87.30
2018-03-30T21:02:15.061Z,87.60
2018-03-30T21:04:42.880Z,87.70
2018-03-30T21:07:10.710Z,87.80
2018-03-30T21:09:38.514Z,88.10
2018-03-30T21:12:06.342Z,87.50
2018-03-30T21:14:34.160Z,87.40
2018-03-30T21:17:01.980Z,87.20
2018-03-30T21:19:29.784Z,87.50
2018-03-30T21:21:57.613Z,86.80
2018-03-30T21:24:25.423Z,87.00
2018-03-30T21:26:53.242Z,87.20
2018-03-30T21:29:21.052Z,87.30
2018-03-30T21:31:48.884Z,87.20
2018-03-30T21:34:16.700Z,87.10
2018-03-30T21:36:44.573Z,86.90
2018-03-30T21:39:12.403Z,86.70
2018-03-30T21:41:40.285Z,87.10
2018-03-30T21:44:08.092Z,86.50
2018-03-30T21:46:35.911Z,86.40
2018-03-30T21:49:03.728Z,86.60
2018-03-30T21:51:31.572Z,86.80
2018-03-30T21:53:59.371Z,86.80
2018-03-30T21:56:27.199Z,87.70
2018-03-30T21:58:55.013Z,86.70
2018-03-30T22:01:22.844Z,86.60
2018-03-30T22:03:50.656Z,86.50
2018-03-30T22:06:17.704Z,86.50
2018-03-30T22:08:45.528Z,86.20
2018-03-30T22:11:13.336Z,86.20
2018-03-30T22:13:41.268Z,86.50
2018-03-30T22:16:09.069Z,86.80
2018-03-30T22:18:36.901Z,87.10
2018-03-30T22:21:04.703Z,87.60
2018-03-30T22:23:32.533Z,87.70
2018-03-30T22:26:00.341Z,87.90
2018-03-30T22:28:28.159Z,88.10
2018-03-30T22:30:55.964Z,88.30
2018-03-30T22:33:23.783Z,88.30
2018-03-30T22:35:51.593Z,88.30
2018-03-30T22:38:19.421Z,88.30
2018-03-30T22:40:47.232Z,88.30
2018-03-30T22:43:15.062Z,88.40
2018-03-30T22:45:42.904Z,88.40
2018-03-30T22:48:10.705Z,88.50
2018-03-30T22:50:38.504Z,88.60
2018-03-30T22:53:06.333Z,88.70
2018-03-30T22:55:34.136Z,88.80
2018-03-30T22:58:01.960Z,88.80
2018-03-30T23:00:29.778Z,89.00
2018-03-30T23:02:58.545Z,88.90
2018-03-30T23:05:26.307Z,89.10
2018-03-30T23:07:54.133Z,89.50
2018-03-30T23:10:21.941Z,89.60
2018-03-30T23:12:49.768Z,89.40
2018-03-30T23:15:17.563Z,89.50
2018-03-30T23:17:45.392Z,89.40
2018-03-30T23:20:13.200Z,89.60
2018-03-30T23:22:41.028Z,90.20
2018-03-30T23:25:08.827Z,90.00
2018-03-30T23:27:36.659Z,90.20
2018-03-30T23:30:04.472Z,90.20
2018-03-30T23:32:32.300Z,90.20
2018-03-30T23:35:00.096Z,90.00
2018-03-30T23:37:27.928Z,90.00
2018-03-30T23:39:55.736Z,89.90
2018-03-30T23:42:23.560Z,89.70
2018-03-30T23:44:51.357Z,89.80
2018-03-30T23:47:19.160Z,90.00
2018-03-30T23:49:46.984Z,90.00
2018-03-30T23:52:14.801Z,90.00
2018-03-30T23:54:42.640Z,90.10
2018-03-30T23:57:10.448Z,90.10
2018-03-30T23:59:38.267Z,90.20
